createdAt,value
2022-12-19T00:01:08.911Z,29.40
2022-12-19T00:03:13.950Z,29.70
2022-12-19T00:05:15.775Z,29.40
2022-12-19T00:07:18.622Z,29.60
2022-12-19T00:09:20.267Z,29.40
2022-12-19T00:11:23.684Z,29.40
2022-12-19T00:13:29.552Z,29.50
2022-12-19T00:15:36.776Z,29.50
2022-12-19T00:17:38.406Z,29.70
2022-12-19T00:19:40.103Z,29.60
2022-12-19T00:21:41.872Z,29.70
2022-12-19T00:23:47.031Z,29.80
2022-12-19T00:25:48.701Z,29.90
2022-12-19T00:27:53.344Z,29.90
2022-12-19T00:29:54.998Z,29.70
2022-12-19T00:31:58.311Z,29.80
2022-12-19T00:34:01.527Z,29.90
2022-12-19T00:36:06.052Z,29.90
2022-12-19T00:38:07.819Z,29.90
2022-12-19T00:40:10.454Z,29.70
2022-12-19T00:42:13.638Z,29.80
2022-12-19T00:44:16.614Z,29.80
2022-12-19T00:46:18.401Z,29.90
2022-12-19T00:48:20.983Z,29.90
2022-12-19T00:50:22.684Z,29.90
2022-12-19T00:52:24.335Z,30.00
2022-12-19T00:54:27.110Z,30.00
2022-12-19T00:56:31.544Z,30.00
2022-12-19T00:58:46.584Z,30.20
2022-12-19T01:00:50.203Z,30.10
2022-12-19T01:02:52.061Z,30.00
2022-12-19T01:04:53.860Z,30.00
2022-12-19T01:07:01.921Z,30.00
2022-12-19T01:09:07.603Z,30.10
2022-12-19T01:11:09.695Z,30.10
2022-12-19T01:13:11.374Z,30.20
2022-12-19T01:15:18.680Z,30.20
2022-12-19T01:17:20.405Z,30.20
2022-12-19T01:19:22.806Z,30.30
2022-12-19T01:21:24.493Z,30.30
2022-12-19T01:23:27.001Z,30.80
2022-12-19T01:25:28.821Z,30.10
2022-12-19T01:27:31.233Z,30.20
2022-12-19T01:29:34.664Z,30.10
2022-12-19T01:31:41.669Z,30.00
2022-12-19T01:33:43.463Z,30.00
2022-12-19T01:35:48.628Z,30.00
2022-12-19T01:37:54.880Z,30.00
2022-12-19T01:40:14.916Z,30.20
2022-12-19T01:42:24.213Z,30.10
2022-12-19T01:44:26.476Z,30.20
2022-12-19T01:46:38.294Z,30.10
2022-12-19T01:48:43.674Z,30.50
2022-12-19T01:51:02.663Z,30.30
2022-12-19T01:53:09.252Z,30.90
2022-12-19T01:55:11.741Z,30.70
2022-12-19T01:57:18.014Z,30.90
2022-12-19T01:59:24.777Z,31.00
2022-12-19T02:01:30.166Z,31.20
2022-12-19T02:03:35.603Z,31.40
2022-12-19T02:05:38.681Z,31.50
2022-12-19T02:07:41.930Z,31.70
2022-12-19T02:09:50.572Z,31.80
2022-12-19T02:12:00.955Z,32.10
2022-12-19T02:14:03.443Z,31.80
2022-12-19T02:16:15.928Z,32.20
2022-12-19T02:18:30.723Z,32.70
2022-12-19T02:20:57.471Z,32.70
2022-12-19T02:23:42.752Z,33.00
2022-12-19T02:26:18.462Z,33.00
2022-12-19T02:28:34.970Z,33.10
2022-12-19T02:31:14.260Z,32.90
2022-12-19T02:33:47.722Z,33.10
2022-12-19T02:36:16.457Z,33.10
2022-12-19T02:38:56.399Z,33.10
2022-12-19T02:41:05.409Z,33.30
2022-12-19T02:43:09.982Z,33.20
2022-12-19T02:45:22.009Z,33.20
2022-12-19T02:47:33.348Z,33.30
2022-12-19T02:49:37.914Z,33.30
2022-12-19T02:51:39.811Z,33.30
2022-12-19T02:53:43.239Z,33.60
2022-12-19T02:56:00.068Z,33.80
2022-12-19T02:58:21.760Z,34.40
2022-12-19T03:00:27.464Z,34.40
2022-12-19T03:02:56.139Z,34.20
2022-12-19T03:05:37.039Z,33.70
2022-12-19T03:07:50.225Z,33.60
2022-12-19T03:10:22.999Z,33.60
2022-12-19T03:12:31.054Z,33.70
2022-12-19T03:14:33.878Z,34.10
2022-12-19T03:16:36.862Z,34.20
2022-12-19T03:18:40.664Z,34.30
2022-12-19T03:21:03.629Z,34.30
2022-12-19T03:23:05.969Z,34.50
2022-12-19T03:25:09.903Z,34.50
2022-12-19T03:27:16.991Z,34.50
2022-12-19T03:29:39.719Z,34.50
2022-12-19T03:31:42.852Z,34.50
2022-12-19T03:33:47.338Z,34.40
2022-12-19T03:35:54.350Z,34.40
2022-12-19T03:38:00.593Z,34.20
2022-12-19T03:40:12.731Z,34.60
2022-12-19T03:42:37.143Z,34.70
2022-12-19T03:44:42.598Z,34.80
2022-12-19T03:46:51.559Z,34.90
2022-12-19T03:48:54.815Z,35.00
2022-12-19T03:51:22.160Z,35.20
2022-12-19T03:53:41.551Z,35.10
2022-12-19T03:55:51.692Z,35.40
2022-12-19T03:58:12.159Z,35.40
2022-12-19T04:00:16.536Z,35.60
2022-12-19T04:02:21.455Z,35.60
2022-12-19T04:04:28.571Z,35.80
2022-12-19T04:06:33.240Z,35.60
2022-12-19T04:08:36.503Z,35.60
2022-12-19T04:10:51.458Z,35.40
2022-12-19T04:13:03.003Z,35.40
2022-12-19T04:15:08.267Z,35.40
2022-12-19T04:17:51.393Z,35.60
2022-12-19T04:20:03.836Z,35.50
2022-12-19T04:22:11.969Z,35.70
2022-12-19T04:24:23.928Z,35.80
2022-12-19T04:26:26.716Z,35.80
2022-12-19T04:28:50.816Z,35.90
2022-12-19T04:30:54.310Z,36.20
2022-12-19T04:32:56.949Z,35.90
2022-12-19T04:34:58.977Z,36.30
2022-12-19T04:37:00.703Z,36.30
2022-12-19T04:39:02.891Z,36.20
2022-12-19T04:41:04.994Z,36.10
2022-12-19T04:43:08.244Z,36.00
2022-12-19T04:45:10.558Z,35.80
2022-12-19T04:47:14.966Z,36.50
2022-12-19T04:49:19.151Z,35.80
2022-12-19T04:51:21.214Z,35.70
2022-12-19T04:53:22.944Z,35.60
2022-12-19T04:55:27.013Z,35.70
2022-12-19T04:57:32.124Z,35.60
2022-12-19T04:59:34.012Z,35.50
2022-12-19T05:01:35.848Z,35.40
2022-12-19T05:03:37.658Z,35.40
2022-12-19T05:05:40.572Z,35.50
2022-12-19T05:07:42.333Z,35.40
2022-12-19T05:09:44.062Z,35.40
2022-12-19T05:11:45.822Z,35.40
2022-12-19T05:13:49.741Z,35.50
2022-12-19T05:16:08.824Z,35.60
2022-12-19T05:18:10.501Z,35.60
2022-12-19T05:20:12.455Z,35.60
2022-12-19T05:22:14.188Z,35.90
2022-12-19T05:24:15.969Z,35.80
2022-12-19T05:26:21.230Z,35.70
2022-12-19T05:28:25.519Z,35.70
2022-12-19T05:30:27.231Z,35.70
2022-12-19T05:32:32.690Z,35.40
2022-12-19T05:34:34.363Z,35.50
2022-12-19T05:36:36.057Z,35.60
2022-12-19T05:38:37.976Z,35.60
2022-12-19T05:40:39.603Z,36.10
2022-12-19T05:42:41.274Z,36.40
2022-12-19T05:44:43.875Z,36.50
2022-12-19T05:46:45.642Z,36.60
2022-12-19T05:48:47.996Z,36.40
2022-12-19T05:50:50.848Z,36.60
2022-12-19T05:52:52.542Z,37.00
2022-12-19T05:54:54.495Z,37.40
2022-12-19T05:56:58.365Z,37.60
2022-12-19T05:59:01.469Z,37.60
2022-12-19T06:01:10.930Z,37.70
2022-12-19T06:03:12.716Z,37.50
2022-12-19T06:05:17.072Z,37.50
2022-12-19T06:07:21.014Z,37.60
2022-12-19T06:09:23.137Z,37.60
2022-12-19T06:11:28.589Z,37.70
2022-12-19T06:13:31.619Z,37.70
2022-12-19T06:15:33.300Z,37.80
2022-12-19T06:17:37.277Z,37.90
2022-12-19T06:19:38.983Z,37.80
2022-12-19T06:21:47.931Z,37.90
2022-12-19T06:23:50.992Z,37.70
2022-12-19T06:25:52.747Z,37.70
2022-12-19T06:27:54.435Z,37.90
2022-12-19T06:29:56.132Z,38.10
2022-12-19T06:31:57.795Z,38.20
2022-12-19T06:34:00.889Z,38.30
2022-12-19T06:36:05.765Z,38.20
2022-12-19T06:38:07.449Z,38.10
2022-12-19T06:40:29.727Z,38.10
2022-12-19T06:42:31.416Z,38.10
2022-12-19T06:44:33.507Z,37.90
2022-12-19T06:46:35.229Z,37.90
2022-12-19T06:48:37.005Z,37.80
2022-12-19T06:50:40.627Z,37.70
2022-12-19T06:52:45.122Z,37.70
2022-12-19T06:54:47.817Z,37.60
2022-12-19T06:56:50.660Z,37.80
2022-12-19T06:58:52.365Z,37.60
2022-12-19T07:00:54.532Z,37.60
2022-12-19T07:02:58.408Z,37.60
2022-12-19T07:05:06.766Z,37.60
2022-12-19T07:07:08.569Z,37.60
2022-12-19T07:09:10.419Z,37.40
2022-12-19T07:11:13.218Z,37.40
2022-12-19T07:13:15.039Z,37.50
2022-12-19T07:15:16.796Z,37.40
2022-12-19T07:17:19.814Z,37.50
2022-12-19T07:19:22.644Z,37.40
2022-12-19T07:21:25.118Z,37.30
2022-12-19T07:23:28.333Z,37.30
2022-12-19T07:25:32.625Z,37.20
2022-12-19T07:27:36.465Z,37.20
2022-12-19T07:29:38.141Z,37.00
2022-12-19T07:31:40.138Z,36.90
2022-12-19T07:33:42.150Z,36.70
2022-12-19T07:35:43.807Z,36.80
2022-12-19T07:37:47.865Z,36.80
2022-12-19T07:39:49.647Z,36.80
2022-12-19T07:41:51.300Z,36.80
2022-12-19T07:44:07.764Z,36.90
2022-12-19T07:46:09.711Z,37.50
2022-12-19T07:48:13.805Z,37.00
2022-12-19T07:50:15.514Z,37.10
2022-12-19T07:52:17.913Z,37.20
2022-12-19T07:54:19.589Z,37.30
2022-12-19T07:56:21.369Z,37.20
2022-12-19T07:58:23.181Z,37.10
2022-12-19T08:00:24.833Z,37.10
2022-12-19T08:02:33.322Z,36.90
2022-12-19T08:04:35.325Z,36.80
2022-12-19T08:06:41.029Z,37.00
2022-12-19T08:08:43.294Z,36.90
2022-12-19T08:10:50.181Z,37.10
2022-12-19T08:12:54.249Z,37.30
2022-12-19T08:14:57.475Z,37.40
2022-12-19T08:19:24.716Z,37.50
2022-12-19T08:21:29.312Z,37.40
2022-12-19T08:23:31.152Z,37.30
2022-12-19T08:25:33.267Z,37.10
2022-12-19T08:27:37.222Z,36.80
2022-12-19T08:29:38.926Z,36.60
2022-12-19T08:31:44.022Z,36.70
2022-12-19T08:33:48.040Z,36.70
2022-12-19T08:35:49.838Z,36.70
2022-12-19T08:37:54.688Z,36.70
2022-12-19T08:39:56.529Z,36.80
2022-12-19T08:41:58.544Z,36.70
2022-12-19T08:44:00.798Z,36.70
2022-12-19T08:46:02.999Z,36.70
2022-12-19T08:48:05.252Z,36.70
2022-12-19T08:50:07.872Z,36.70
2022-12-19T08:52:11.643Z,36.30
2022-12-19T08:54:13.426Z,36.30
2022-12-19T08:56:20.499Z,36.20
2022-12-19T08:58:25.552Z,36.20
2022-12-19T09:00:27.217Z,36.30
2022-12-19T09:02:32.616Z,36.20
2022-12-19T09:05:58.153Z,36.30
2022-12-19T09:06:57.640Z,36.20
2022-12-19T09:09:00.519Z,36.00
2022-12-19T09:11:14.911Z,36.00
2022-12-19T09:13:16.568Z,36.10
2022-12-19T09:15:18.413Z,36.00
2022-12-19T09:17:22.875Z,36.10
2022-12-19T09:19:24.687Z,36.00
2022-12-19T09:21:29.203Z,35.80
2022-12-19T09:23:34.005Z,35.80
2022-12-19T09:25:38.114Z,35.80
2022-12-19T09:28:17.477Z,35.70
2022-12-19T09:30:02.630Z,35.70
2022-12-19T09:32:04.481Z,35.50
2022-12-19T09:34:06.420Z,35.80
2022-12-19T09:36:12.075Z,35.60
2022-12-19T09:38:13.763Z,35.50
2022-12-19T09:40:17.164Z,35.60
2022-12-19T09:42:56.568Z,35.40
2022-12-19T09:45:20.425Z,35.40
2022-12-19T09:47:36.759Z,35.40
2022-12-19T09:49:43.128Z,35.20
2022-12-19T09:51:57.163Z,35.30
2022-12-19T09:54:08.656Z,35.20
2022-12-19T09:56:18.997Z,35.10
2022-12-19T09:58:37.600Z,35.00
2022-12-19T10:00:59.779Z,35.10
2022-12-19T10:03:39.824Z,35.00
2022-12-19T10:07:15.826Z,35.10
2022-12-19T10:08:44.807Z,35.00
2022-12-19T10:12:42.259Z,34.90
2022-12-19T10:14:06.784Z,35.00
2022-12-19T10:16:20.401Z,35.10
2022-12-19T10:18:32.798Z,35.10
2022-12-19T10:20:45.626Z,35.00
2022-12-19T10:23:23.068Z,35.00
2022-12-19T10:25:55.269Z,35.10
2022-12-19T10:28:32.960Z,35.10
2022-12-19T10:30:44.824Z,35.20
2022-12-19T10:32:59.928Z,35.00
2022-12-19T10:35:02.177Z,35.10
2022-12-19T10:37:25.341Z,35.10
2022-12-19T10:39:35.789Z,35.40
2022-12-19T10:41:44.296Z,35.50
2022-12-19T10:44:03.061Z,35.50
2022-12-19T10:46:21.273Z,35.40
2022-12-19T10:48:31.016Z,35.40
2022-12-19T10:50:34.122Z,35.30
2022-12-19T10:53:05.186Z,35.10
2022-12-19T10:55:32.853Z,35.00
2022-12-19T10:57:36.927Z,34.90
2022-12-19T10:59:40.086Z,34.80
2022-12-19T11:01:42.256Z,34.80
2022-12-19T11:03:51.487Z,34.90
2022-12-19T11:05:58.859Z,34.80
2022-12-19T11:08:11.337Z,34.80
2022-12-19T11:12:18.901Z,34.50
2022-12-19T11:18:47.189Z,34.70
2022-12-19T11:19:00.310Z,34.50
2022-12-19T11:23:32.134Z,34.50
2022-12-19T11:29:27.630Z,34.60
2022-12-19T11:30:35.303Z,33.30
2022-12-19T11:30:41.541Z,34.50
2022-12-19T11:30:44.327Z,33.60
2022-12-19T11:33:15.663Z,33.60
2022-12-19T11:35:24.821Z,33.60
2022-12-19T11:37:33.542Z,33.60
2022-12-19T11:40:00.224Z,33.60
2022-12-19T11:42:30.125Z,33.60
2022-12-19T11:44:55.631Z,33.50
2022-12-19T11:47:22.677Z,33.40
2022-12-19T11:49:37.065Z,33.40
2022-12-19T11:51:46.107Z,33.40
2022-12-19T11:53:57.118Z,33.30
2022-12-19T11:56:15.995Z,33.30
2022-12-19T11:58:23.817Z,33.30
2022-12-19T12:00:25.695Z,33.20
2022-12-19T12:03:05.105Z,33.20
2022-12-19T12:05:39.996Z,33.20
2022-12-19T12:08:30.067Z,33.10
2022-12-19T12:14:26.678Z,33.10
2022-12-19T12:19:13.837Z,33.20
2022-12-19T12:27:32.295Z,33.00
2022-12-19T12:31:00.245Z,33.10
2022-12-19T12:31:07.462Z,32.90
2022-12-19T12:31:17.001Z,33.10
2022-12-19T12:31:50.064Z,32.80
2022-12-19T12:32:06.759Z,32.90
2022-12-19T12:35:42.372Z,32.90
2022-12-19T12:37:03.540Z,32.80
2022-12-19T12:40:44.688Z,32.80
2022-12-19T12:43:11.943Z,32.80
2022-12-19T12:45:32.498Z,33.00
2022-12-19T12:47:36.101Z,33.00
2022-12-19T12:49:43.217Z,32.90
2022-12-19T12:51:46.946Z,33.00
2022-12-19T12:53:54.429Z,33.80
2022-12-19T12:56:00.610Z,33.00
2022-12-19T12:58:09.181Z,33.10
2022-12-19T13:00:21.524Z,33.00
2022-12-19T13:02:24.915Z,32.90
2022-12-19T13:04:41.111Z,32.90
2022-12-19T13:07:03.499Z,32.90
2022-12-19T13:09:10.647Z,32.90
2022-12-19T13:11:55.834Z,32.80
2022-12-19T13:13:58.075Z,32.90
2022-12-19T13:15:59.746Z,32.80
2022-12-19T13:18:13.418Z,32.70
2022-12-19T13:20:42.811Z,32.80
2022-12-19T13:23:20.080Z,33.00
2022-12-19T13:25:49.276Z,33.00
2022-12-19T13:27:54.620Z,32.80
2022-12-19T13:30:14.064Z,32.80
2022-12-19T13:32:18.206Z,33.00
2022-12-19T13:34:19.977Z,32.80
2022-12-19T13:39:50.678Z,32.90
2022-12-19T13:39:59.206Z,33.00
2022-12-19T13:42:08.610Z,33.00
2022-12-19T13:44:12.764Z,33.00
2022-12-19T13:46:45.734Z,32.80
2022-12-19T13:48:52.155Z,33.60
2022-12-19T13:50:55.032Z,33.00
2022-12-19T13:53:01.096Z,32.80
2022-12-19T13:55:03.219Z,32.90
2022-12-19T13:57:22.054Z,32.80
2022-12-19T13:59:27.530Z,32.90
2022-12-19T14:01:35.126Z,32.90
2022-12-19T14:03:43.645Z,32.80
2022-12-19T14:06:18.238Z,32.90
2022-12-19T14:08:08.436Z,32.80
2022-12-19T14:11:32.383Z,32.90
2022-12-19T14:13:44.361Z,33.00
2022-12-19T14:15:41.808Z,32.90
2022-12-19T14:17:49.855Z,33.70
2022-12-19T14:19:53.154Z,33.00
2022-12-19T14:22:20.731Z,33.10
2022-12-19T14:24:26.931Z,33.20
2022-12-19T14:28:19.827Z,33.30
2022-12-19T14:28:58.401Z,33.20
2022-12-19T14:31:05.200Z,33.30
2022-12-19T14:33:43.932Z,33.50
2022-12-19T14:36:07.810Z,33.50
2022-12-19T14:39:23.966Z,33.70
2022-12-19T14:41:07.386Z,33.70
2022-12-19T14:43:58.918Z,34.00
2022-12-19T14:54:06.892Z,34.20
2022-12-19T14:54:14.415Z,34.20
2022-12-19T14:54:15.011Z,34.30
2022-12-19T14:55:11.967Z,34.20
2022-12-19T14:58:57.778Z,34.40
2022-12-19T15:01:11.035Z,34.40
2022-12-19T15:03:23.749Z,34.40
2022-12-19T15:05:29.908Z,34.40
2022-12-19T15:07:33.934Z,34.50
2022-12-19T15:11:05.451Z,34.50
2022-12-19T15:14:48.944Z,34.30
2022-12-19T15:15:03.532Z,34.40
2022-12-19T15:17:21.217Z,34.20
2022-12-19T15:19:23.231Z,34.10
2022-12-19T15:21:27.981Z,34.30
2022-12-19T15:23:30.659Z,34.20
2022-12-19T15:26:03.293Z,34.20
2022-12-19T15:27:54.096Z,34.10
2022-12-19T15:29:55.756Z,34.30
2022-12-19T15:31:57.458Z,34.50
2022-12-19T15:34:32.889Z,34.40
2022-12-19T15:36:21.108Z,34.50
2022-12-19T15:38:22.846Z,34.50
2022-12-19T15:40:24.525Z,34.50
2022-12-19T15:42:27.690Z,34.50
2022-12-19T15:44:43.406Z,34.80
2022-12-19T15:46:49.008Z,35.00
2022-12-19T15:48:52.824Z,35.00
2022-12-19T15:50:54.477Z,34.80
2022-12-19T15:53:00.165Z,35.00
2022-12-19T15:55:02.595Z,35.30
2022-12-19T15:57:04.290Z,35.30
2022-12-19T15:59:23.406Z,35.40
2022-12-19T16:01:27.077Z,35.70
2022-12-19T16:03:31.792Z,35.80
2022-12-19T16:05:33.674Z,35.70
2022-12-19T16:07:37.869Z,36.00
2022-12-19T16:09:39.566Z,35.90
2022-12-19T16:11:41.275Z,36.00
2022-12-19T16:13:48.892Z,36.00
2022-12-19T16:15:52.216Z,36.20
2022-12-19T16:17:55.611Z,36.30
2022-12-19T16:19:57.832Z,36.40
2022-12-19T16:22:00.212Z,36.50
2022-12-19T16:24:01.972Z,36.50
2022-12-19T16:26:04.900Z,36.80
2022-12-19T16:28:12.658Z,37.00
2022-12-19T16:30:20.943Z,37.20
2022-12-19T16:32:26.099Z,36.80
2022-12-19T16:34:28.548Z,36.60
2022-12-19T16:36:30.833Z,36.50
2022-12-19T16:38:33.223Z,36.20
2022-12-19T16:40:34.962Z,36.20
2022-12-19T16:42:36.699Z,36.40
2022-12-19T16:44:38.398Z,36.30
2022-12-19T16:46:42.177Z,36.40
2022-12-19T16:48:48.055Z,36.50
2022-12-19T16:50:50.012Z,36.50
2022-12-19T16:52:52.855Z,36.20
2022-12-19T16:54:54.489Z,36.30
2022-12-19T16:56:58.569Z,36.20
2022-12-19T16:59:04.614Z,36.30
2022-12-19T17:01:09.394Z,36.20
2022-12-19T17:03:36.311Z,36.30
2022-12-19T17:05:38.357Z,36.30
2022-12-19T17:07:40.079Z,36.30
2022-12-19T17:09:41.781Z,36.70
2022-12-19T17:12:07.437Z,36.60
2022-12-19T17:14:17.807Z,36.70
2022-12-19T17:16:26.767Z,36.10
2022-12-19T17:18:35.400Z,36.20
2022-12-19T17:20:43.265Z,36.00
2022-12-19T17:22:45.801Z,36.00
2022-12-19T17:24:51.018Z,35.70
2022-12-19T17:26:52.714Z,35.80
2022-12-19T17:28:55.738Z,35.60
2022-12-19T17:31:02.392Z,35.80
2022-12-19T17:33:04.372Z,35.90
2022-12-19T17:35:08.621Z,36.10
2022-12-19T17:37:16.067Z,36.30
2022-12-19T17:39:23.323Z,36.20
2022-12-19T17:41:25.598Z,36.40
2022-12-19T17:43:27.226Z,36.10
2022-12-19T17:45:32.305Z,35.90
2022-12-19T17:47:36.440Z,36.30
2022-12-19T17:49:38.855Z,36.40
2022-12-19T17:51:40.529Z,36.70
2022-12-19T17:53:42.328Z,36.60
2022-12-19T17:55:43.959Z,36.40
2022-12-19T17:57:45.922Z,36.60
2022-12-19T17:59:47.644Z,36.80
2022-12-19T18:01:49.822Z,36.60
2022-12-19T18:03:56.962Z,36.60
2022-12-19T18:05:58.676Z,36.50
2022-12-19T18:08:00.501Z,36.30
2022-12-19T18:10:02.198Z,36.40
2022-12-19T18:12:04.044Z,36.30
2022-12-19T18:14:05.819Z,36.30
2022-12-19T18:16:13.225Z,36.20
2022-12-19T18:18:18.321Z,36.40
2022-12-19T18:20:32.020Z,36.30
2022-12-19T18:22:34.162Z,36.30
2022-12-19T18:24:35.981Z,36.10
2022-12-19T18:26:39.851Z,36.10
2022-12-19T18:28:42.201Z,36.30
2022-12-19T18:30:46.999Z,36.50
2022-12-19T18:32:52.433Z,36.60
2022-12-19T18:34:54.211Z,36.60
2022-12-19T18:36:58.216Z,36.90
2022-12-19T18:38:59.906Z,37.10
2022-12-19T18:41:03.965Z,37.20
2022-12-19T18:43:08.631Z,37.20
2022-12-19T18:45:20.608Z,37.10
2022-12-19T18:47:23.867Z,37.70
2022-12-19T18:49:27.717Z,37.80
2022-12-19T18:51:29.449Z,37.60
2022-12-19T18:53:37.329Z,37.50
2022-12-19T18:55:39.680Z,37.40
2022-12-19T18:57:42.809Z,37.40
2022-12-19T18:59:44.444Z,37.40
2022-12-19T19:01:47.187Z,37.40
2022-12-19T19:03:57.496Z,37.20
2022-12-19T19:06:01.850Z,37.00
2022-12-19T19:08:18.564Z,36.90
2022-12-19T19:10:28.414Z,37.00
2022-12-19T19:12:40.188Z,37.50
2022-12-19T19:14:42.016Z,36.80
2022-12-19T19:16:43.958Z,36.70
2022-12-19T19:18:58.848Z,36.70
2022-12-19T19:21:01.716Z,36.60
2022-12-19T19:23:06.075Z,36.60
2022-12-19T19:25:09.055Z,36.50
2022-12-19T19:27:10.743Z,36.60
2022-12-19T19:29:18.697Z,36.40
2022-12-19T19:31:23.273Z,36.30
2022-12-19T19:33:31.259Z,36.10
2022-12-19T19:35:33.790Z,35.80
2022-12-19T19:37:39.884Z,35.90
2022-12-19T19:39:41.991Z,35.90
2022-12-19T19:41:43.925Z,36.00
2022-12-19T19:43:45.644Z,36.00
2022-12-19T19:45:47.340Z,36.00
2022-12-19T19:47:49.277Z,35.90
2022-12-19T19:49:50.945Z,36.00
2022-12-19T19:51:56.960Z,36.00
2022-12-19T19:54:02.070Z,35.80
2022-12-19T19:56:04.917Z,35.90
2022-12-19T19:58:09.799Z,36.00
2022-12-19T20:00:12.078Z,35.90
2022-12-19T20:02:19.813Z,35.90
2022-12-19T20:04:21.943Z,35.80
2022-12-19T20:06:24.167Z,35.80
2022-12-19T20:08:26.118Z,35.70
2022-12-19T20:10:27.842Z,35.60
2022-12-19T20:12:29.638Z,35.60
2022-12-19T20:14:31.365Z,35.60
2022-12-19T20:16:33.723Z,35.70
2022-12-19T20:18:36.987Z,35.40
2022-12-19T20:20:38.952Z,35.20
2022-12-19T20:22:40.812Z,35.30
2022-12-19T20:24:42.497Z,35.00
2022-12-19T20:26:46.455Z,35.10
2022-12-19T20:28:53.150Z,35.00
2022-12-19T20:30:56.935Z,34.90
2022-12-19T20:33:01.442Z,34.90
2022-12-19T20:35:03.631Z,34.80
2022-12-19T20:37:06.467Z,34.70
2022-12-19T20:39:09.331Z,34.80
2022-12-19T20:41:10.978Z,34.70
2022-12-19T20:43:13.045Z,34.80
2022-12-19T20:45:14.737Z,34.80
2022-12-19T20:47:16.451Z,34.80
2022-12-19T20:49:18.693Z,34.90
2022-12-19T20:51:23.497Z,34.90
2022-12-19T20:53:25.931Z,34.80
2022-12-19T20:55:31.965Z,34.90
2022-12-19T20:57:33.663Z,34.80
2022-12-19T20:59:35.370Z,34.80
2022-12-19T21:01:40.230Z,34.80
2022-12-19T21:03:42.878Z,34.80
2022-12-19T21:05:44.830Z,34.80
2022-12-19T21:07:46.615Z,34.80
2022-12-19T21:09:50.194Z,34.70
2022-12-19T21:11:54.029Z,34.70
2022-12-19T21:13:55.882Z,34.90
2022-12-19T21:16:02.952Z,34.90
2022-12-19T21:18:04.832Z,35.10
2022-12-19T21:20:09.497Z,35.30
2022-12-19T21:22:13.629Z,36.20
2022-12-19T21:24:15.307Z,35.80
2022-12-19T21:26:17.042Z,35.80
2022-12-19T21:28:19.274Z,36.00
2022-12-19T21:30:21.002Z,36.10
2022-12-19T21:32:24.966Z,36.00
2022-12-19T21:34:26.666Z,36.20
2022-12-19T21:36:29.926Z,36.30
2022-12-19T21:38:31.592Z,36.50
2022-12-19T21:40:37.002Z,36.80
2022-12-19T21:42:38.693Z,36.60
2022-12-19T21:44:42.971Z,36.50
2022-12-19T21:46:44.831Z,36.40
2022-12-19T21:48:49.043Z,36.50
2022-12-19T21:50:55.775Z,36.50
2022-12-19T21:52:57.464Z,36.40
2022-12-19T21:54:59.178Z,36.10
2022-12-19T21:57:00.883Z,36.30
2022-12-19T21:59:14.988Z,36.10
2022-12-19T22:01:17.011Z,36.00
2022-12-19T22:03:20.804Z,36.10
2022-12-19T22:05:22.531Z,36.90
2022-12-19T22:07:24.241Z,36.50
2022-12-19T22:09:26.044Z,36.60
2022-12-19T22:11:28.790Z,36.50
2022-12-19T22:13:30.487Z,36.60
2022-12-19T22:15:32.182Z,37.20
2022-12-19T22:17:35.881Z,36.50
2022-12-19T22:19:37.977Z,36.40
2022-12-19T22:21:47.685Z,36.40
2022-12-19T22:23:49.657Z,36.50
2022-12-19T22:26:00.882Z,36.40
2022-12-19T22:28:02.856Z,36.50
2022-12-19T22:30:10.938Z,36.40
2022-12-19T22:32:14.275Z,36.60
2022-12-19T22:34:18.793Z,36.60
2022-12-19T22:36:27.628Z,36.30
2022-12-19T22:38:30.218Z,36.40
2022-12-19T22:40:34.351Z,36.30
2022-12-19T22:42:36.050Z,36.30
2022-12-19T22:44:37.861Z,36.20
2022-12-19T22:46:40.678Z,36.30
2022-12-19T22:48:46.144Z,36.40
2022-12-19T22:50:47.837Z,36.30
2022-12-19T22:52:51.751Z,36.40
2022-12-19T22:54:53.430Z,36.40
2022-12-19T22:56:56.942Z,36.40
2022-12-19T22:59:01.778Z,36.40
2022-12-19T23:01:13.172Z,36.20
2022-12-19T23:03:15.733Z,36.10
2022-12-19T23:05:19.847Z,36.90
2022-12-19T23:07:21.523Z,36.20
2022-12-19T23:09:23.182Z,36.20
2022-12-19T23:11:35.681Z,36.20
2022-12-19T23:13:39.174Z,36.20
2022-12-19T23:15:43.112Z,36.40
2022-12-19T23:17:44.752Z,36.30
2022-12-19T23:19:46.483Z,36.40
2022-12-19T23:21:48.149Z,36.40
2022-12-19T23:23:52.045Z,36.40
2022-12-19T23:25:53.687Z,36.40
2022-12-19T23:27:56.667Z,36.50
2022-12-19T23:29:58.322Z,36.60
2022-12-19T23:32:00.356Z,36.50
2022-12-19T23:34:02.162Z,36.60
2022-12-19T23:36:04.850Z,36.60
2022-12-19T23:38:10.690Z,36.60
2022-12-19T23:40:12.469Z,36.60
2022-12-19T23:42:16.271Z,36.60
2022-12-19T23:44:20.925Z,36.50
2022-12-19T23:46:26.698Z,36.40
2022-12-19T23:48:31.322Z,36.30
2022-12-19T23:50:34.024Z,36.40
2022-12-19T23:52:35.644Z,37.10
2022-12-19T23:54:37.349Z,36.50
2022-12-19T23:56:39.309Z,36.40
2022-12-19T23:58:41.192Z,36.40
